Time;durP1;ratioP1;P1;durP2;ratioP2;P2;SDS_P1;SDS_P2;PMS_P1;PMS_P2;Temp;Humidity;BMP_temperature;BMP_pressure;BME280_temperature;BME280_humidity;BME280_pressure;Samples;Min_cycle;Max_cycle;Signal;HPM_P1;HPM_P2
2022/08/16 00:00:21;;;;;;;4.85;2.40;;;23.50;51.10;;;;;;5031389;28;20017;-74
2022/08/16 00:02:47;;;;;;;2.75;2.40;;;23.50;50.90;;;;;;5034052;28;20086;-75
2022/08/16 00:05:14;;;;;;;3.85;2.60;;;23.50;50.70;;;;;;5033876;28;20551;-75
2022/08/16 00:07:41;;;;;;;3.88;2.42;;;23.50;50.50;;;;;;5033715;28;20021;-73
2022/08/16 00:10:09;;;;;;;7.30;2.47;;;23.40;50.50;;;;;;5033895;28;20022;-74
2022/08/16 00:12:35;;;;;;;5.28;2.47;;;23.50;50.50;;;;;;5015943;28;20013;-75
2022/08/16 00:15:07;;;;;;;5.20;2.33;;;23.50;50.30;;;;;;5033829;28;20032;-74
2022/08/16 00:17:32;;;;;;;4.53;2.03;;;23.50;50.40;;;;;;5034225;28;20371;-74
2022/08/16 00:19:58;;;;;;;6.20;2.55;;;23.50;50.50;;;;;;5033290;28;20047;-74
2022/08/16 00:22:25;;;;;;;4.93;2.10;;;23.50;50.40;;;;;;5033544;28;20036;-74
2022/08/16 00:24:53;;;;;;;3.55;2.13;;;23.50;50.60;;;;;;5033359;28;20041;-75
2022/08/16 00:27:18;;;;;;;5.00;2.92;;;23.50;50.50;;;;;;5030967;28;20116;-74
2022/08/16 00:29:44;;;;;;;3.22;2.33;;;23.50;50.50;;;;;;5033484;28;20084;-74
2022/08/16 00:32:10;;;;;;;3.22;2.35;;;23.50;50.60;;;;;;5033653;28;20017;-73
2022/08/16 00:34:37;;;;;;;4.75;2.85;;;23.50;50.50;;;;;;5033488;28;20084;-75
2022/08/16 00:37:03;;;;;;;3.88;2.13;;;23.40;50.80;;;;;;5015676;28;20075;-74
2022/08/16 00:39:28;;;;;;;9.13;2.28;;;23.40;50.80;;;;;;5031954;28;20060;-73
2022/08/16 00:41:55;;;;;;;10.75;2.60;;;23.40;51.40;;;;;;5032909;28;20021;-74
2022/08/16 00:44:22;;;;;;;3.58;2.13;;;23.40;50.80;;;;;;5032959;28;20025;-74
2022/08/16 00:46:56;;;;;;;3.60;2.38;;;23.30;50.70;;;;;;5032898;28;20017;-74
2022/08/16 00:49:23;;;;;;;5.15;2.00;;;23.30;50.80;;;;;;5029690;28;20026;-74
2022/08/16 00:51:51;;;;;;;3.03;2.38;;;23.30;50.50;;;;;;5032921;28;20021;-75
2022/08/16 00:54:18;;;;;;;7.05;2.35;;;23.30;50.70;;;;;;5030272;28;20017;-75
2022/08/16 00:56:47;;;;;;;4.97;2.35;;;23.30;50.70;;;;;;5032948;28;20471;-73
2022/08/16 00:59:15;;;;;;;3.72;2.33;;;23.30;50.60;;;;;;5032310;28;20072;-75
2022/08/16 01:01:43;;;;;;;4.03;2.40;;;23.30;50.40;;;;;;5032802;28;20084;-75
2022/08/16 01:04:10;;;;;;;3.53;2.30;;;23.30;51.00;;;;;;5032337;28;20021;-74
2022/08/16 01:06:36;;;;;;;2.63;2.28;;;23.30;50.40;;;;;;5014995;28;20052;-75
2022/08/16 01:09:05;;;;;;;3.50;2.10;;;23.30;50.50;;;;;;5014677;28;20017;-75
2022/08/16 01:11:34;;;;;;;3.00;2.22;;;23.30;50.40;;;;;;5032463;28;20052;-75
2022/08/16 01:14:22;;;;;;;4.53;2.30;;;23.30;50.40;;;;;;5030178;28;20040;-75
2022/08/16 01:16:50;;;;;;;3.67;2.08;;;23.30;50.40;;;;;;5031239;28;20017;-75
2022/08/16 01:19:23;;;;;;;4.32;2.63;;;23.30;50.20;;;;;;5032283;28;20013;-75
2022/08/16 01:22:10;;;;;;;2.30;2.03;;;23.30;50.30;;;;;;5032120;28;20041;-74
2022/08/16 01:24:40;;;;;;;3.67;2.33;;;23.30;50.20;;;;;;5032103;28;20256;-74
2022/08/16 01:27:12;;;;;;;4.55;2.53;;;23.30;50.20;;;;;;5032123;28;20026;-75
2022/08/16 01:29:56;;;;;;;3.17;2.10;;;23.30;50.20;;;;;;5029297;28;20021;-75
2022/08/16 01:32:22;;;;;;;6.63;2.45;;;23.30;50.20;;;;;;5028854;28;20100;-74
2022/08/16 01:34:48;;;;;;;3.67;2.20;;;23.30;50.30;;;;;;5031861;28;20104;-75
2022/08/16 01:37:14;;;;;;;4.53;2.20;;;23.30;49.90;;;;;;5031986;28;20529;-75
2022/08/16 01:39:41;;;;;;;3.50;2.13;;;23.30;49.50;;;;;;5032001;28;20033;-75
2022/08/16 01:42:07;;;;;;;4.65;1.95;;;23.30;49.50;;;;;;5031967;28;20014;-74
2022/08/16 01:44:35;;;;;;;6.13;2.08;;;23.40;49.50;;;;;;5032323;28;20076;-74
2022/08/16 01:47:01;;;;;;;4.15;2.08;;;23.40;49.50;;;;;;5031631;28;20108;-74
2022/08/16 01:49:32;;;;;;;3.65;2.08;;;23.40;49.50;;;;;;5031674;28;20022;-74
2022/08/16 01:52:17;;;;;;;2.60;1.92;;;23.50;49.40;;;;;;5031895;28;20498;-74
2022/08/16 01:54:42;;;;;;;7.15;2.20;;;23.40;49.10;;;;;;5031411;28;20013;-74
2022/08/16 01:57:08;;;;;;;3.92;2.08;;;23.50;48.80;;;;;;5031667;28;20363;-74
2022/08/16 01:59:35;;;;;;;3.92;1.95;;;23.50;48.80;;;;;;5031714;28;20376;-73
2022/08/16 02:02:02;;;;;;;3.92;2.03;;;23.60;48.70;;;;;;5031501;28;20018;-74
2022/08/16 02:04:29;;;;;;;3.50;2.08;;;23.60;48.70;;;;;;5031843;28;20074;-74
2022/08/16 02:06:56;;;;;;;3.70;2.20;;;23.60;48.50;;;;;;5014906;28;20057;-75
2022/08/16 02:09:23;;;;;;;5.53;2.00;;;23.60;48.50;;;;;;5031398;28;20348;-74
2022/08/16 02:11:52;;;;;;;2.30;2.10;;;23.60;48.30;;;;;;5030673;28;20025;-75
2022/08/16 02:14:21;;;;;;;2.45;1.90;;;23.60;48.70;;;;;;5031450;28;20030;-75
2022/08/16 02:16:47;;;;;;;2.78;1.92;;;23.60;48.50;;;;;;5028914;28;20032;-74
2022/08/16 02:19:13;;;;;;;2.55;1.88;;;23.70;48.60;;;;;;5030084;28;20525;-74
2022/08/16 02:21:39;;;;;;;2.30;1.63;;;23.60;48.60;;;;;;5031159;28;20041;-74
2022/08/16 02:24:05;;;;;;;2.33;1.67;;;23.60;48.60;;;;;;5010952;28;20030;-73
2022/08/16 02:26:31;;;;;;;2.80;1.73;;;23.60;48.60;;;;;;5031193;28;20024;-73
2022/08/16 02:28:58;;;;;;;2.75;1.83;;;23.60;48.60;;;;;;5029982;28;20068;-74
2022/08/16 02:31:23;;;;;;;2.53;2.33;;;23.60;48.70;;;;;;5031104;28;20509;-73
2022/08/16 02:33:49;;;;;;;6.18;1.83;;;23.60;48.70;;;;;;5031260;28;20025;-74
2022/08/16 02:36:15;;;;;;;2.25;2.00;;;23.60;48.70;;;;;;5013494;28;20043;-73
2022/08/16 02:38:41;;;;;;;2.53;1.88;;;23.50;48.70;;;;;;5031028;28;20501;-74
2022/08/16 02:41:08;;;;;;;6.78;2.42;;;23.50;48.70;;;;;;5031103;28;20763;-73
2022/08/16 02:43:35;;;;;;;5.07;2.05;;;23.40;48.70;;;;;;5031089;28;20032;-75
2022/08/16 02:46:02;;;;;;;4.07;1.92;;;23.40;49.00;;;;;;5030851;28;20360;-74
2022/08/16 02:48:37;;;;;;;2.60;2.15;;;23.40;49.00;;;;;;5030914;28;20024;-75
2022/08/16 02:51:06;;;;;;;4.72;2.15;;;23.30;49.20;;;;;;5030840;28;20060;-74
2022/08/16 02:53:33;;;;;;;2.75;1.95;;;23.30;49.20;;;;;;5030870;28;20049;-74
2022/08/16 02:55:59;;;;;;;3.05;1.90;;;23.30;49.20;;;;;;5013240;28;20033;-74
2022/08/16 02:58:25;;;;;;;4.43;1.88;;;23.30;49.30;;;;;;5031150;28;20013;-74
2022/08/16 03:00:52;;;;;;;4.68;2.17;;;23.20;49.40;;;;;;5030811;28;20076;-74
2022/08/16 03:03:18;;;;;;;2.17;1.77;;;23.20;49.40;;;;;;5030757;28;20451;-74
2022/08/16 03:05:46;;;;;;;5.45;2.40;;;23.20;49.70;;;;;;5030713;28;20049;-73
2022/08/16 03:08:12;;;;;;;6.45;2.38;;;23.20;49.80;;;;;;5030491;28;20444;-73
2022/08/16 03:10:38;;;;;;;5.05;1.95;;;23.30;49.90;;;;;;5030811;28;20041;-74
2022/08/16 03:13:04;;;;;;;9.30;2.20;;;23.30;49.90;;;;;;5030583;28;20048;-75
2022/08/16 03:15:30;;;;;;;3.55;1.90;;;23.30;49.80;;;;;;5030691;28;20076;-74
2022/08/16 03:17:56;;;;;;;9.63;2.50;;;23.30;49.80;;;;;;5030779;28;20409;-74
2022/08/16 03:20:22;;;;;;;3.38;2.60;;;23.30;49.80;;;;;;5030357;28;20077;-74
2022/08/16 03:22:48;;;;;;;3.92;2.63;;;23.30;49.80;;;;;;5032349;28;20471;-75
2022/08/16 03:25:14;;;;;;;3.00;2.30;;;23.30;49.90;;;;;;5034472;28;20493;-74
2022/08/16 03:27:40;;;;;;;6.70;2.50;;;23.30;50.00;;;;;;5034358;28;20550;-75
2022/08/16 03:30:23;;;;;;;11.60;2.80;;;23.40;50.00;;;;;;5032938;28;20113;-75
2022/08/16 03:32:49;;;;;;;7.47;2.60;;;23.40;50.10;;;;;;5033544;28;20045;-74
2022/08/16 03:35:17;;;;;;;6.05;2.30;;;23.40;50.30;;;;;;5035642;28;20099;-75
2022/08/16 03:37:44;;;;;;;4.90;2.42;;;23.40;50.50;;;;;;5033764;28;20017;-75
2022/08/16 03:40:12;;;;;;;5.75;2.40;;;23.40;50.70;;;;;;5033694;28;20088;-75
2022/08/16 03:42:37;;;;;;;8.30;2.25;;;23.30;50.40;;;;;;5034193;28;20096;-74
2022/08/16 03:45:04;;;;;;;2.30;1.92;;;23.40;50.70;;;;;;5033281;28;20116;-74
2022/08/16 03:47:30;;;;;;;4.32;2.17;;;23.30;50.40;;;;;;5034071;28;20029;-75
2022/08/16 03:49:57;;;;;;;5.47;2.20;;;23.30;50.80;;;;;;5015753;28;20032;-73
2022/08/16 03:52:24;;;;;;;3.13;2.08;;;23.30;50.70;;;;;;5015888;28;20025;-75
2022/08/16 03:54:51;;;;;;;6.90;2.03;;;23.30;50.80;;;;;;5016047;28;20079;-74
2022/08/16 03:57:17;;;;;;;4.78;2.33;;;23.30;50.50;;;;;;5032607;28;20026;-75
2022/08/16 03:59:43;;;;;;;3.45;2.33;;;23.30;50.40;;;;;;5033794;28;20027;-74
2022/08/16 04:02:11;;;;;;;9.85;2.85;;;23.30;50.40;;;;;;5033913;28;20033;-74
2022/08/16 04:04:37;;;;;;;5.25;2.25;;;23.30;50.70;;;;;;5036124;28;20076;-74
2022/08/16 04:07:05;;;;;;;4.70;2.38;;;23.30;50.90;;;;;;5032691;28;20021;-75
2022/08/16 04:09:34;;;;;;;5.05;2.50;;;23.20;50.90;;;;;;5033622;28;20014;-73
2022/08/16 04:12:00;;;;;;;3.10;2.30;;;23.20;50.80;;;;;;5033029;28;20056;-73
2022/08/16 04:14:25;;;;;;;4.25;2.50;;;23.20;51.10;;;;;;5031034;28;20045;-74
2022/08/16 04:16:51;;;;;;;7.57;2.83;;;23.20;51.30;;;;;;5032326;28;20026;-73
2022/08/16 04:19:17;;;;;;;5.13;2.95;;;23.20;51.60;;;;;;5015809;28;20064;-73
2022/08/16 04:21:43;;;;;;;6.40;2.63;;;23.20;51.80;;;;;;5032341;28;20064;-73
2022/08/16 04:24:08;;;;;;;5.88;2.60;;;23.10;52.00;;;;;;5032268;28;20497;-72
2022/08/16 04:26:34;;;;;;;5.05;2.30;;;23.10;52.20;;;;;;5033185;28;20086;-74
2022/08/16 04:29:01;;;;;;;8.50;2.97;;;23.10;52.20;;;;;;5032520;28;20541;-73
2022/08/16 04:31:27;;;;;;;9.93;3.25;;;23.00;52.20;;;;;;5030764;28;20044;-75
2022/08/16 04:33:58;;;;;;;3.58;2.53;;;23.00;52.00;;;;;;5034105;28;20416;-73
2022/08/16 04:36:24;;;;;;;3.22;2.15;;;23.00;51.90;;;;;;5033207;28;20009;-73
2022/08/16 04:38:50;;;;;;;4.22;2.38;;;23.00;51.60;;;;;;5032882;28;20286;-73
2022/08/16 04:41:17;;;;;;;3.92;2.50;;;23.00;51.10;;;;;;5032808;28;20021;-74
2022/08/16 04:43:42;;;;;;;6.00;2.33;;;23.00;51.20;;;;;;5032478;28;20494;-73
2022/08/16 04:46:08;;;;;;;4.07;2.15;;;23.00;51.10;;;;;;5032043;28;20053;-73
2022/08/16 04:48:34;;;;;;;4.43;2.35;;;23.00;51.30;;;;;;5031258;28;20387;-74
2022/08/16 04:51:00;;;;;;;7.07;2.33;;;23.00;51.60;;;;;;5031879;28;20055;-74
2022/08/16 04:53:27;;;;;;;4.50;2.50;;;23.00;52.00;;;;;;5030330;28;20471;-74
2022/08/16 04:55:53;;;;;;;2.53;2.33;;;23.00;52.70;;;;;;5014209;28;20128;-74
2022/08/16 04:58:19;;;;;;;6.00;2.42;;;22.90;53.10;;;;;;5014924;28;20021;-74
2022/08/16 05:00:46;;;;;;;4.07;2.47;;;22.90;52.90;;;;;;5031398;28;20083;-73
2022/08/16 05:03:12;;;;;;;4.30;2.25;;;22.90;52.70;;;;;;5031355;28;20045;-74
2022/08/16 05:05:40;;;;;;;5.03;2.45;;;22.90;52.50;;;;;;5016598;28;20442;-74
2022/08/16 05:08:07;;;;;;;5.82;2.28;;;22.90;52.30;;;;;;5032370;28;20021;-74
2022/08/16 05:10:33;;;;;;;5.28;2.67;;;22.90;52.20;;;;;;5029013;28;20025;-73
2022/08/16 05:13:01;;;;;;;4.07;2.65;;;22.80;51.80;;;;;;5032233;28;20533;-73
2022/08/16 05:15:28;;;;;;;5.43;2.20;;;22.80;51.70;;;;;;5031991;28;20364;-75
2022/08/16 05:17:54;;;;;;;3.60;2.20;;;22.80;51.50;;;;;;5032492;28;20471;-73
2022/08/16 05:20:21;;;;;;;6.03;2.45;;;22.80;51.30;;;;;;5032007;28;20049;-74
2022/08/16 05:22:47;;;;;;;3.30;2.10;;;22.80;51.40;;;;;;5032226;28;20375;-73
2022/08/16 05:25:14;;;;;;;4.68;2.78;;;22.90;51.30;;;;;;5031777;28;20060;-74
2022/08/16 05:27:42;;;;;;;3.85;2.65;;;22.90;51.50;;;;;;5013241;28;20030;-74
2022/08/16 05:30:11;;;;;;;5.95;2.58;;;22.90;51.80;;;;;;5013789;28;20078;-73
2022/08/16 05:32:39;;;;;;;5.22;3.03;;;22.90;51.80;;;;;;5035658;28;20052;-73
2022/08/16 05:35:08;;;;;;;4.35;2.55;;;22.90;51.80;;;;;;5014350;28;20028;-74
2022/08/16 05:37:35;;;;;;;5.25;2.50;;;22.90;51.50;;;;;;5014346;28;20021;-73
2022/08/16 05:40:01;;;;;;;3.53;2.20;;;22.90;51.40;;;;;;5030873;28;20037;-73
2022/08/16 05:42:26;;;;;;;2.92;2.08;;;22.90;51.40;;;;;;5032870;28;20506;-74
2022/08/16 05:44:52;;;;;;;4.72;2.35;;;22.90;51.40;;;;;;5031909;28;20021;-73
2022/08/16 05:47:18;;;;;;;2.58;2.00;;;22.90;51.50;;;;;;5031023;28;20021;-73
2022/08/16 05:49:44;;;;;;;3.03;2.05;;;23.00;51.40;;;;;;5031215;28;20482;-74
2022/08/16 05:52:11;;;;;;;5.78;2.38;;;22.90;51.40;;;;;;5014120;28;20112;-74
2022/08/16 05:54:37;;;;;;;2.35;2.00;;;23.00;51.40;;;;;;5032537;28;20018;-74
2022/08/16 05:57:04;;;;;;;4.53;2.70;;;23.10;51.40;;;;;;5031543;28;20104;-74
2022/08/16 05:59:30;;;;;;;3.88;2.17;;;23.10;51.50;;;;;;5031695;28;20049;-74
2022/08/16 06:01:56;;;;;;;7.32;2.75;;;23.10;51.40;;;;;;5031944;28;20025;-74
2022/08/16 06:04:22;;;;;;;10.45;2.70;;;23.20;51.50;;;;;;5014018;28;20029;-75
2022/08/16 06:06:49;;;;;;;9.20;3.25;;;23.20;51.50;;;;;;5036057;28;20025;-74
2022/08/16 06:09:16;;;;;;;4.80;2.78;;;23.30;52.20;;;;;;5030381;28;20072;-74
2022/08/16 06:11:43;;;;;;;12.02;3.40;;;23.30;51.70;;;;;;5031297;28;20023;-73
2022/08/16 06:14:09;;;;;;;16.40;3.10;;;23.30;51.70;;;;;;5031504;28;20014;-75
2022/08/16 06:16:35;;;;;;;6.40;2.55;;;23.30;51.50;;;;;;5031163;28;20031;-75
2022/08/16 06:19:01;;;;;;;6.38;3.10;;;23.30;51.40;;;;;;5031283;28;20542;-74
2022/08/16 06:21:26;;;;;;;6.00;2.80;;;23.40;51.40;;;;;;5030095;28;20050;-74
2022/08/16 06:23:52;;;;;;;6.97;2.65;;;23.40;51.40;;;;;;5032527;28;20024;-75
2022/08/16 06:26:18;;;;;;;6.57;2.80;;;23.40;51.20;;;;;;5030189;28;20033;-74
2022/08/16 06:28:44;;;;;;;5.57;2.75;;;23.50;51.30;;;;;;5032382;28;20017;-74
2022/08/16 06:31:11;;;;;;;10.25;3.22;;;23.50;51.30;;;;;;5032544;28;20059;-74
2022/08/16 06:33:37;;;;;;;4.32;2.58;;;23.50;51.20;;;;;;5035455;28;20016;-73
2022/08/16 06:36:03;;;;;;;7.80;3.00;;;23.60;51.20;;;;;;5035318;28;20021;-74
2022/08/16 06:38:29;;;;;;;5.47;2.72;;;23.60;51.50;;;;;;5032396;28;20141;-74
2022/08/16 06:40:55;;;;;;;4.82;2.63;;;23.60;51.60;;;;;;5033669;28;20053;-73
2022/08/16 06:43:21;;;;;;;6.78;2.72;;;23.70;51.60;;;;;;5032497;28;20058;-74
2022/08/16 06:45:48;;;;;;;3.38;2.58;;;23.70;51.50;;;;;;5031876;28;20018;-74
2022/08/16 06:48:13;;;;;;;3.65;2.47;;;23.80;51.00;;;;;;5035578;28;20118;-73
2022/08/16 06:50:40;;;;;;;6.38;3.67;;;23.80;50.70;;;;;;5032368;28;20013;-74
2022/08/16 06:53:06;;;;;;;5.13;2.40;;;23.90;50.80;;;;;;5032458;28;20031;-74
2022/08/16 06:55:33;;;;;;;5.85;2.85;;;23.90;50.70;;;;;;5032275;28;20506;-73
2022/08/16 06:58:00;;;;;;;3.15;2.38;;;23.90;50.90;;;;;;5034500;28;20486;-74
2022/08/16 07:00:26;;;;;;;7.57;2.90;;;24.00;51.40;;;;;;5036487;28;20033;-73
2022/08/16 07:02:52;;;;;;;7.97;2.55;;;24.10;51.50;;;;;;5018736;28;20128;-73
2022/08/16 07:05:18;;;;;;;4.07;2.50;;;24.30;51.30;;;;;;5036192;28;20518;-73
2022/08/16 07:07:47;;;;;;;4.00;2.45;;;24.30;51.20;;;;;;5036126;28;20037;-74
2022/08/16 07:10:13;;;;;;;4.93;2.47;;;24.50;51.00;;;;;;5036284;28;20014;-75
2022/08/16 07:12:39;;;;;;;2.88;2.13;;;24.60;51.40;;;;;;5036299;28;20013;-73
2022/08/16 07:15:05;;;;;;;4.18;2.28;;;24.70;50.80;;;;;;5035016;28;20028;-72
2022/08/16 07:17:31;;;;;;;5.93;3.15;;;24.80;50.40;;;;;;5036210;28;20475;-74
2022/08/16 07:19:58;;;;;;;4.95;2.08;;;24.90;49.60;;;;;;5035954;28;20029;-73
2022/08/16 07:22:24;;;;;;;9.18;2.08;;;25.00;48.80;;;;;;5036116;28;20029;-73
2022/08/16 07:24:50;;;;;;;3.75;2.65;;;25.20;48.60;;;;;;5036005;28;20497;-73
2022/08/16 07:27:16;;;;;;;7.22;2.05;;;25.20;47.60;;;;;;5035954;28;20029;-73
2022/08/16 07:29:42;;;;;;;8.88;2.42;;;25.30;47.80;;;;;;5035688;28;20492;-73
2022/08/16 07:32:08;;;;;;;3.40;1.65;;;25.50;46.40;;;;;;5035804;28;20386;-74
2022/08/16 07:34:34;;;;;;;14.63;2.42;;;25.50;46.80;;;;;;5045977;28;20057;-74
2022/08/16 07:37:04;;;;;;;6.47;2.53;;;25.60;46.50;;;;;;5055768;28;20102;-73
2022/08/16 07:39:29;;;;;;;5.38;2.25;;;25.70;45.80;;;;;;5016028;28;20029;-74
2022/08/16 07:41:55;;;;;;;2.95;1.95;;;25.70;46.20;;;;;;5015800;28;20022;-73
2022/08/16 07:44:21;;;;;;;5.70;2.05;;;25.80;45.90;;;;;;5015630;28;20026;-74
2022/08/16 07:46:47;;;;;;;6.43;2.00;;;25.90;45.70;;;;;;5015646;28;20361;-74
2022/08/16 07:49:12;;;;;;;2.78;1.88;;;26.00;45.60;;;;;;5015601;28;20022;-73
2022/08/16 07:51:39;;;;;;;3.20;2.13;;;26.00;45.20;;;;;;5015680;28;20018;-73
2022/08/16 07:54:07;;;;;;;6.28;2.08;;;26.10;45.20;;;;;;5014368;28;20029;-75
2022/08/16 07:56:32;;;;;;;2.97;2.00;;;26.10;45.40;;;;;;5014085;28;20049;-74
2022/08/16 07:59:00;;;;;;;2.65;2.03;;;26.20;45.10;;;;;;5015497;28;20026;-74
2022/08/16 08:01:29;;;;;;;7.55;2.17;;;26.20;44.50;;;;;;5015346;28;20022;-73
2022/08/16 08:03:55;;;;;;;3.53;1.88;;;26.30;44.90;;;;;;5025104;28;20028;-73
2022/08/16 08:06:24;;;;;;;3.60;1.95;;;26.40;44.80;;;;;;5054780;28;20035;-73
2022/08/16 08:08:50;;;;;;;15.05;2.63;;;26.40;44.60;;;;;;5051630;28;20029;-75
2022/08/16 08:11:16;;;;;;;10.55;2.13;;;26.50;44.60;;;;;;5055324;28;20544;-74
2022/08/16 08:13:42;;;;;;;4.68;1.60;;;26.50;44.20;;;;;;5055019;28;20024;-73
2022/08/16 08:16:09;;;;;;;3.17;1.85;;;26.50;43.80;;;;;;5055025;28;20409;-73
2022/08/16 08:18:35;;;;;;;2.17;1.60;;;26.60;43.40;;;;;;5055256;28;20056;-74
2022/08/16 08:21:01;;;;;;;2.03;1.83;;;26.70;43.20;;;;;;5046913;28;20141;-74
2022/08/16 08:23:27;;;;;;;3.45;1.60;;;26.80;43.20;;;;;;5013954;28;20109;-74
2022/08/16 08:25:52;;;;;;;4.03;1.98;;;26.80;43.40;;;;;;5013889;28;20022;-75
2022/08/16 08:28:19;;;;;;;5.63;2.10;;;26.90;43.00;;;;;;5013787;28;20048;-75
2022/08/16 08:30:45;;;;;;;4.25;1.73;;;26.90;42.40;;;;;;5015092;28;20022;-74
2022/08/16 08:33:11;;;;;;;5.22;1.85;;;27.00;43.00;;;;;;5013639;28;20025;-75
2022/08/16 08:35:38;;;;;;;2.30;1.77;;;27.10;42.90;;;;;;5014625;28;20033;-74
2022/08/16 08:38:08;;;;;;;3.15;2.00;;;27.20;43.10;;;;;;4975807;28;20029;-75
2022/08/16 08:40:35;;;;;;;2.63;1.55;;;27.30;42.60;;;;;;4975898;28;20026;-75
2022/08/16 08:43:01;;;;;;;4.85;1.70;;;27.50;42.90;;;;;;4996620;28;20557;-75
2022/08/16 08:45:28;;;;;;;1.80;1.70;;;27.60;42.90;;;;;;5014694;28;20062;-74
2022/08/16 08:47:55;;;;;;;4.43;1.70;;;27.70;42.50;;;;;;5014489;28;20025;-74
2022/08/16 08:50:22;;;;;;;2.78;1.80;;;27.90;41.90;;;;;;5014755;28;20467;-74
2022/08/16 08:52:50;;;;;;;2.20;1.73;;;28.00;41.10;;;;;;5014706;28;20026;-74
2022/08/16 08:55:16;;;;;;;2.10;1.80;;;28.20;41.30;;;;;;5014476;28;20049;-74
2022/08/16 08:57:46;;;;;;;2.55;1.83;;;28.20;40.70;;;;;;5014581;28;20435;-74
2022/08/16 09:00:14;;;;;;;2.90;1.52;;;28.30;40.20;;;;;;5014457;28;20029;-75
2022/08/16 09:02:44;;;;;;;2.03;1.70;;;28.30;39.80;;;;;;5014376;28;20134;-74
2022/08/16 09:05:11;;;;;;;3.28;2.05;;;28.40;40.10;;;;;;4999683;28;20030;-74
2022/08/16 09:07:37;;;;;;;7.38;1.73;;;28.50;40.60;;;;;;4994628;28;20060;-75
2022/08/16 09:10:05;;;;;;;2.25;1.80;;;28.50;40.10;;;;;;4994799;28;20053;-75
2022/08/16 09:12:31;;;;;;;2.72;1.88;;;28.50;40.00;;;;;;4994611;28;20020;-75
2022/08/16 09:14:57;;;;;;;2.00;1.67;;;28.50;40.60;;;;;;4994526;28;20385;-75
2022/08/16 09:17:23;;;;;;;2.47;2.20;;;28.40;40.40;;;;;;4993403;28;20018;-75
2022/08/16 09:19:50;;;;;;;2.60;1.67;;;28.50;39.70;;;;;;4995984;28;20526;-74
2022/08/16 09:22:17;;;;;;;2.03;1.70;;;28.40;40.10;;;;;;5033921;28;20032;-75
2022/08/16 09:24:43;;;;;;;3.75;1.80;;;28.40;39.90;;;;;;5033857;28;20105;-76
2022/08/16 09:27:09;;;;;;;5.13;1.67;;;28.40;40.00;;;;;;5033748;28;20116;-74
2022/08/16 09:29:34;;;;;;;3.75;1.95;;;28.40;39.70;;;;;;5032424;28;20105;-74
2022/08/16 09:32:00;;;;;;;1.77;1.65;;;28.40;39.80;;;;;;5033852;28;20048;-75
2022/08/16 09:34:26;;;;;;;2.05;1.58;;;28.40;39.20;;;;;;5039819;28;20467;-74
2022/08/16 09:36:56;;;;;;;3.33;2.10;;;28.40;39.30;;;;;;5033794;28;20025;-74
2022/08/16 09:39:24;;;;;;;2.42;1.65;;;28.40;39.70;;;;;;5033991;28;20017;-73
2022/08/16 09:41:51;;;;;;;3.20;1.92;;;28.40;39.30;;;;;;5033864;28;20021;-74
2022/08/16 09:44:19;;;;;;;5.60;2.22;;;28.40;39.40;;;;;;5032371;28;20057;-74
2022/08/16 09:46:45;;;;;;;5.22;1.75;;;28.30;39.20;;;;;;5032333;28;20487;-73
2022/08/16 09:49:12;;;;;;;3.35;1.50;;;28.40;39.40;;;;;;5033448;28;20103;-75
2022/08/16 09:51:39;;;;;;;2.58;1.55;;;28.40;39.30;;;;;;5033493;28;20032;-74
2022/08/16 09:54:05;;;;;;;2.25;1.80;;;28.40;38.80;;;;;;5033330;28;20541;-75
2022/08/16 09:56:34;;;;;;;1.70;1.60;;;28.50;39.00;;;;;;5033557;28;20029;-75
2022/08/16 09:59:02;;;;;;;5.93;2.13;;;28.50;39.10;;;;;;5033390;28;20025;-75
2022/08/16 10:01:29;;;;;;;2.75;2.03;;;28.50;38.80;;;;;;5033736;28;20030;-74
2022/08/16 10:03:56;;;;;;;6.22;2.20;;;28.50;38.60;;;;;;5036729;28;20017;-74
2022/08/16 10:06:23;;;;;;;4.63;1.85;;;28.60;38.80;;;;;;5052726;28;20051;-74
2022/08/16 10:08:49;;;;;;;3.38;1.90;;;28.60;38.90;;;;;;5035024;28;20086;-75
2022/08/16 10:13:59;;;;;;;2.20;2.00;;;28.60;37.70;;;;;;5053069;28;20493;-74
2022/08/16 10:16:26;;;;;;;3.25;1.70;;;28.70;37.70;;;;;;5052927;28;20021;-73
2022/08/16 10:18:52;;;;;;;5.78;1.73;;;28.70;38.20;;;;;;5052961;28;20502;-75
2022/08/16 10:21:18;;;;;;;3.30;1.80;;;28.80;38.40;;;;;;5034911;28;20438;-75
2022/08/16 10:23:44;;;;;;;2.50;1.60;;;28.80;37.90;;;;;;5053131;28;20096;-74
2022/08/16 10:26:11;;;;;;;2.63;1.77;;;28.80;37.70;;;;;;5052714;28;20470;-73
2022/08/16 10:28:37;;;;;;;2.13;1.60;;;28.90;37.40;;;;;;5052629;28;20040;-74
2022/08/16 10:31:04;;;;;;;5.72;1.67;;;29.00;37.40;;;;;;5052600;28;20021;-74
2022/08/16 10:33:31;;;;;;;2.60;1.42;;;29.00;37.50;;;;;;5046278;28;20052;-74
2022/08/16 10:35:57;;;;;;;2.33;1.88;;;29.00;37.30;;;;;;5052717;28;20487;-75
2022/08/16 10:38:22;;;;;;;4.00;1.48;;;29.10;36.90;;;;;;5052878;28;20053;-74
2022/08/16 10:40:48;;;;;;;7.25;1.80;;;29.10;36.60;;;;;;5052459;28;20043;-74
2022/08/16 10:43:14;;;;;;;4.80;1.73;;;29.20;36.70;;;;;;5052546;28;20024;-74
2022/08/16 10:45:40;;;;;;;2.60;1.58;;;29.20;36.30;;;;;;5052519;28;20391;-73
2022/08/16 10:48:09;;;;;;;4.40;1.40;;;29.20;35.80;;;;;;5052438;28;20032;-74
2022/08/16 10:50:35;;;;;;;2.58;1.70;;;29.30;35.40;;;;;;5034735;28;20108;-73
2022/08/16 10:53:05;;;;;;;6.00;2.03;;;29.40;35.80;;;;;;5052494;28;20024;-76
2022/08/16 10:55:39;;;;;;;4.38;2.00;;;29.40;35.50;;;;;;5052499;28;20025;-74
2022/08/16 10:58:07;;;;;;;8.68;1.80;;;29.40;34.70;;;;;;5052447;28;20024;-74
2022/08/16 11:00:36;;;;;;;1.77;1.40;;;29.40;34.70;;;;;;5052413;28;20117;-74
2022/08/16 11:03:03;;;;;;;2.10;1.50;;;29.50;35.40;;;;;;5052384;28;20378;-74
2022/08/16 11:05:33;;;;;;;1.40;1.30;;;29.50;34.40;;;;;;5035844;28;20057;-73
2022/08/16 11:08:00;;;;;;;8.15;1.58;;;29.50;35.00;;;;;;5032222;28;20021;-74
2022/08/16 11:10:34;;;;;;;3.08;1.70;;;29.60;35.10;;;;;;5014849;28;20021;-74
2022/08/16 11:13:02;;;;;;;2.55;1.70;;;29.60;34.60;;;;;;5032308;28;20429;-73
2022/08/16 11:15:27;;;;;;;2.10;1.38;;;29.70;34.40;;;;;;5031255;28;20471;-73
2022/08/16 11:17:54;;;;;;;3.95;1.80;;;29.80;34.80;;;;;;5032306;28;20028;-74
2022/08/16 11:20:21;;;;;;;3.20;1.50;;;29.80;34.80;;;;;;5014523;28;20049;-74
2022/08/16 11:22:48;;;;;;;4.43;1.88;;;29.90;35.00;;;;;;5014692;28;20022;-75
2022/08/16 11:25:18;;;;;;;3.47;1.90;;;29.90;34.90;;;;;;5032332;28;20109;-74
2022/08/16 11:27:46;;;;;;;2.20;1.65;;;29.90;34.70;;;;;;5032218;28;20101;-74
2022/08/16 11:30:14;;;;;;;1.85;1.42;;;30.00;35.00;;;;;;5032226;28;20556;-74
2022/08/16 11:32:44;;;;;;;3.45;1.70;;;30.00;35.10;;;;;;5032139;28;20072;-73
2022/08/16 11:35:13;;;;;;;2.92;1.83;;;30.00;34.60;;;;;;5044863;28;20021;-75
2022/08/16 11:37:42;;;;;;;6.43;2.22;;;30.10;34.80;;;;;;5051949;28;20036;-74
2022/08/16 11:40:09;;;;;;;2.97;1.70;;;30.10;34.60;;;;;;5052042;28;20278;-75
2022/08/16 11:42:34;;;;;;;2.00;1.75;;;30.20;34.80;;;;;;5047483;28;20450;-74
2022/08/16 11:45:00;;;;;;;2.63;1.70;;;30.20;34.70;;;;;;5035648;28;20109;-74
2022/08/16 11:47:26;;;;;;;2.40;1.60;;;30.20;34.20;;;;;;5035696;28;20029;-75
2022/08/16 11:49:52;;;;;;;2.42;1.60;;;30.30;34.50;;;;;;5036019;28;20337;-74
2022/08/16 11:52:18;;;;;;;2.67;1.50;;;30.30;34.30;;;;;;5035763;28;20071;-74
2022/08/16 11:54:44;;;;;;;1.33;1.23;;;30.30;33.20;;;;;;5034410;28;20419;-74
2022/08/16 11:57:12;;;;;;;2.38;1.48;;;30.30;33.80;;;;;;5035606;28;20021;-75
2022/08/16 11:59:38;;;;;;;3.67;1.50;;;30.40;33.80;;;;;;5034348;28;20391;-73
2022/08/16 12:02:05;;;;;;;3.25;1.52;;;30.40;33.10;;;;;;5035485;28;20494;-75
2022/08/16 12:04:35;;;;;;;2.65;1.45;;;30.50;31.90;;;;;;5035441;28;20021;-75
2022/08/16 12:07:03;;;;;;;4.38;1.60;;;30.50;32.20;;;;;;5035314;28;20609;-73
2022/08/16 12:09:29;;;;;;;3.67;1.52;;;30.50;32.00;;;;;;5035466;28;20022;-75
2022/08/16 12:11:58;;;;;;;2.38;1.40;;;30.50;32.20;;;;;;5035280;28;20037;-73
2022/08/16 12:14:25;;;;;;;5.35;1.90;;;30.60;32.10;;;;;;5053539;28;20021;-73
2022/08/16 12:16:55;;;;;;;2.03;1.50;;;30.60;31.90;;;;;;5055193;28;20116;-74
2022/08/16 12:19:22;;;;;;;1.88;1.38;;;30.60;31.90;;;;;;5055148;28;20504;-73
2022/08/16 12:21:48;;;;;;;1.58;1.42;;;30.70;31.70;;;;;;5037128;28;20077;-73
2022/08/16 12:24:14;;;;;;;1.98;1.70;;;30.70;31.90;;;;;;5037206;28;20064;-75
2022/08/16 12:26:40;;;;;;;4.03;1.80;;;30.80;31.80;;;;;;5055020;28;20025;-73
2022/08/16 12:29:06;;;;;;;3.67;1.40;;;30.80;31.40;;;;;;5037002;28;20079;-76
2022/08/16 12:31:32;;;;;;;3.25;1.63;;;30.80;31.40;;;;;;5042378;28;20426;-74
2022/08/16 12:33:58;;;;;;;3.88;1.80;;;30.80;31.30;;;;;;5034913;28;20056;-74
2022/08/16 12:36:25;;;;;;;5.95;1.77;;;30.80;31.40;;;;;;5033712;28;20028;-74
2022/08/16 12:38:51;;;;;;;3.45;1.98;;;30.90;31.60;;;;;;5017134;28;20128;-73
2022/08/16 12:41:17;;;;;;;2.40;1.70;;;30.90;31.10;;;;;;5033518;28;20025;-74
2022/08/16 12:43:43;;;;;;;3.92;1.90;;;30.90;30.90;;;;;;5045931;28;20029;-74
2022/08/16 12:46:11;;;;;;;4.22;1.98;;;30.90;31.20;;;;;;5054689;28;20098;-74